<?xml version="1.0" encoding="UTF-8" standalone="no" ?>
<gpx xmlns="http://www.topografix.com/GPX/1/1" xmlns:xsi="http://www.w3.org/2001/XMLSchema-instance" xsi:schemaLocation="http://www.topografix.com/GPX/1/1 http://www.topografix.com/GPX/1/1/gpx.xsd" version="1.1" creator="VisuGPX - https://www.visugpx.com">
  <metadata>
    <name>Vallée de Chevreuse</name>
  </metadata>
  <wpt lat="48.70316" lon="2.07088">
    <ele>79.5</ele>
    <type><![CDATA[GENERIC]]></type>
  </wpt>
  <wpt lat="48.7032" lon="2.07089">
    <ele>78.9</ele>
    <type><![CDATA[GENERIC]]></type>
  </wpt>
  <trk>
    <name><![CDATA[Vallée de Chevreuse 3/3]]></name>
    <extensions>
      <line xmlns="http://www.topografix.com/GPX/gpx_style/0/2">
        <color>FF0000</color>
        <width>4</width>
        <dasharray>8</dasharray>
          <extensions>
            <sens>1</sens>
          </extensions>
      </line>
    </extensions>
    <trkseg>
      <trkpt lat="48.65639" lon="1.93047">
        <ele>166.3</ele>
        <time>2025-03-16T05:24:06.000Z</time>
        <extensions>
          <visugpx:TrkExtension xmlns:visugpx="https://www.visugpx.com/editgpx/">
            <visugpx:node>1</visugpx:node>
            </visugpx:TrkExtension>
        </extensions>
      </trkpt>
      <trkpt lat="48.65653" lon="1.93">
        <ele>168</ele>
        <time>2025-03-16T05:25:35.000Z</time>
      </trkpt>
      <trkpt lat="48.65616" lon="1.92551">
        <ele>168</ele>
        <time>2025-03-16T05:31:17.000Z</time>
      </trkpt>
      <trkpt lat="48.65536" lon="1.9246">
        <ele>168</ele>
        <time>2025-03-16T05:33:11.000Z</time>
      </trkpt>
      <trkpt lat="48.65697" lon="1.92067">
        <ele>170</ele>
        <time>2025-03-16T05:39:21.000Z</time>
      </trkpt>
      <trkpt lat="48.65852" lon="1.91711">
        <ele>172</ele>
        <time>2025-03-16T05:45:04.000Z</time>
      </trkpt>
      <trkpt lat="48.65856" lon="1.91903">
        <ele>171</ele>
        <time>2025-03-16T05:47:30.000Z</time>
      </trkpt>
      <trkpt lat="48.66077" lon="1.91856">
        <ele>171</ele>
        <time>2025-03-16T05:51:45.000Z</time>
      </trkpt>
      <trkpt lat="48.66432" lon="1.91761">
        <ele>173</ele>
        <time>2025-03-16T05:58:59.000Z</time>
      </trkpt>
      <trkpt lat="48.66535" lon="1.91728">
        <ele>173</ele>
        <time>2025-03-16T06:00:59.000Z</time>
      </trkpt>
      <trkpt lat="48.6674" lon="1.91578">
        <ele>173</ele>
        <time>2025-03-16T06:05:19.000Z</time>
      </trkpt>
      <trkpt lat="48.6681" lon="1.91534">
        <ele>173</ele>
        <time>2025-03-16T06:06:46.000Z</time>
      </trkpt>
      <trkpt lat="48.67149" lon="1.9136">
        <ele>173</ele>
        <time>2025-03-16T06:13:36.000Z</time>
      </trkpt>
      <trkpt lat="48.67355" lon="1.91561">
        <ele>175</ele>
        <time>2025-03-16T06:18:37.000Z</time>
      </trkpt>
      <trkpt lat="48.67165" lon="1.91812">
        <ele>175</ele>
        <time>2025-03-16T06:23:26.000Z</time>
      </trkpt>
      <trkpt lat="48.67062" lon="1.92001">
        <ele>174</ele>
        <time>2025-03-16T06:26:31.000Z</time>
      </trkpt>
      <trkpt lat="48.66975" lon="1.92245">
        <ele>173</ele>
        <time>2025-03-16T06:30:01.000Z</time>
      </trkpt>
      <trkpt lat="48.67195" lon="1.92477">
        <ele>174</ele>
        <time>2025-03-16T06:35:19.000Z</time>
      </trkpt>
      <trkpt lat="48.6726" lon="1.92545">
        <ele>173</ele>
        <time>2025-03-16T06:36:49.000Z</time>
      </trkpt>
      <trkpt lat="48.67361" lon="1.92715">
        <ele>173</ele>
        <time>2025-03-16T06:39:42.000Z</time>
      </trkpt>
      <trkpt lat="48.67417" lon="1.92843">
        <ele>172</ele>
        <time>2025-03-16T06:41:37.000Z</time>
      </trkpt>
      <trkpt lat="48.67525" lon="1.92981">
        <ele>171</ele>
        <time>2025-03-16T06:44:19.000Z</time>
      </trkpt>
      <trkpt lat="48.67603" lon="1.93046">
        <ele>172</ele>
        <time>2025-03-16T06:46:11.000Z</time>
      </trkpt>
      <trkpt lat="48.67812" lon="1.93077">
        <ele>173</ele>
        <time>2025-03-16T06:50:22.000Z</time>
      </trkpt>
      <trkpt lat="48.67833" lon="1.93077">
        <ele>173</ele>
        <time>2025-03-16T06:50:46.000Z</time>
      </trkpt>
      <trkpt lat="48.6793" lon="1.9312">
        <ele>171</ele>
        <time>2025-03-16T06:52:42.000Z</time>
      </trkpt>
      <trkpt lat="48.67872" lon="1.9346">
        <ele>172</ele>
        <time>2025-03-16T06:57:18.000Z</time>
      </trkpt>
      <trkpt lat="48.67863" lon="1.93629">
        <ele>173</ele>
        <time>2025-03-16T06:59:37.000Z</time>
      </trkpt>
      <trkpt lat="48.67851" lon="1.93673">
        <ele>173</ele>
        <time>2025-03-16T07:00:12.000Z</time>
      </trkpt>
      <trkpt lat="48.67834" lon="1.93708">
        <ele>173</ele>
        <time>2025-03-16T07:00:45.000Z</time>
      </trkpt>
      <trkpt lat="48.67749" lon="1.93881">
        <ele>172</ele>
        <time>2025-03-16T07:03:28.000Z</time>
      </trkpt>
      <trkpt lat="48.68156" lon="1.94216">
        <ele>123</ele>
        <time>2025-03-16T07:12:18.000Z</time>
      </trkpt>
      <trkpt lat="48.68175" lon="1.94197">
        <ele>122</ele>
        <time>2025-03-16T07:12:43.000Z</time>
      </trkpt>
      <trkpt lat="48.68296" lon="1.94214">
        <ele>119</ele>
        <time>2025-03-16T07:15:02.000Z</time>
      </trkpt>
      <trkpt lat="48.68279" lon="1.94295">
        <ele>121</ele>
        <time>2025-03-16T07:16:27.000Z</time>
      </trkpt>
      <trkpt lat="48.6826" lon="1.94353">
        <ele>122</ele>
        <time>2025-03-16T07:17:26.000Z</time>
      </trkpt>
      <trkpt lat="48.68227" lon="1.94449">
        <ele>122</ele>
        <time>2025-03-16T07:18:48.000Z</time>
      </trkpt>
      <trkpt lat="48.68179" lon="1.94455">
        <ele>119</ele>
        <time>2025-03-16T07:19:44.000Z</time>
      </trkpt>
      <trkpt lat="48.6814" lon="1.945">
        <ele>120</ele>
        <time>2025-03-16T07:20:50.000Z</time>
      </trkpt>
      <trkpt lat="48.68127" lon="1.94543">
        <ele>121</ele>
        <time>2025-03-16T07:21:36.000Z</time>
      </trkpt>
      <trkpt lat="48.68135" lon="1.94697">
        <ele>128</ele>
        <time>2025-03-16T07:24:45.000Z</time>
      </trkpt>
      <trkpt lat="48.68088" lon="1.94835">
        <ele>119</ele>
        <time>2025-03-16T07:26:43.000Z</time>
      </trkpt>
      <trkpt lat="48.68085" lon="1.94918">
        <ele>121</ele>
        <time>2025-03-16T07:28:06.000Z</time>
      </trkpt>
      <trkpt lat="48.68063" lon="1.94964">
        <ele>120</ele>
        <time>2025-03-16T07:28:49.000Z</time>
      </trkpt>
      <trkpt lat="48.68005" lon="1.94999">
        <ele>118</ele>
        <time>2025-03-16T07:30:00.000Z</time>
      </trkpt>
      <trkpt lat="48.6797" lon="1.95049">
        <ele>118</ele>
        <time>2025-03-16T07:30:56.000Z</time>
      </trkpt>
      <trkpt lat="48.67945" lon="1.95107">
        <ele>116</ele>
        <time>2025-03-16T07:31:48.000Z</time>
      </trkpt>
      <trkpt lat="48.67932" lon="1.95254">
        <ele>118</ele>
        <time>2025-03-16T07:34:01.000Z</time>
      </trkpt>
      <trkpt lat="48.67882" lon="1.95356">
        <ele>118</ele>
        <time>2025-03-16T07:35:36.000Z</time>
      </trkpt>
      <trkpt lat="48.67853" lon="1.95442">
        <ele>116</ele>
        <time>2025-03-16T07:36:49.000Z</time>
      </trkpt>
      <trkpt lat="48.67862" lon="1.95528">
        <ele>118</ele>
        <time>2025-03-16T07:38:16.000Z</time>
      </trkpt>
      <trkpt lat="48.67842" lon="1.95605">
        <ele>119</ele>
        <time>2025-03-16T07:39:29.000Z</time>
      </trkpt>
      <trkpt lat="48.67753" lon="1.95749">
        <ele>117</ele>
        <time>2025-03-16T07:41:59.000Z</time>
      </trkpt>
      <trkpt lat="48.67728" lon="1.95834">
        <ele>117</ele>
        <time>2025-03-16T07:43:09.000Z</time>
      </trkpt>
      <trkpt lat="48.67694" lon="1.95912">
        <ele>117</ele>
        <time>2025-03-16T07:44:20.000Z</time>
      </trkpt>
      <trkpt lat="48.67679" lon="1.96001">
        <ele>117</ele>
        <time>2025-03-16T07:45:29.000Z</time>
      </trkpt>
      <trkpt lat="48.67685" lon="1.96069">
        <ele>118</ele>
        <time>2025-03-16T07:46:32.000Z</time>
      </trkpt>
      <trkpt lat="48.67674" lon="1.96138">
        <ele>117</ele>
        <time>2025-03-16T07:47:25.000Z</time>
      </trkpt>
      <trkpt lat="48.67683" lon="1.96173">
        <ele>122</ele>
        <time>2025-03-16T07:48:45.000Z</time>
      </trkpt>
      <trkpt lat="48.67671" lon="1.96187">
        <ele>118</ele>
        <time>2025-03-16T07:49:02.000Z</time>
      </trkpt>
      <trkpt lat="48.67654" lon="1.96207">
        <ele>115</ele>
        <time>2025-03-16T07:49:27.000Z</time>
      </trkpt>
      <trkpt lat="48.67654" lon="1.96252">
        <ele>115</ele>
        <time>2025-03-16T07:50:01.000Z</time>
      </trkpt>
      <trkpt lat="48.67673" lon="1.96292">
        <ele>115</ele>
        <time>2025-03-16T07:50:39.000Z</time>
      </trkpt>
      <trkpt lat="48.67702" lon="1.96323">
        <ele>115</ele>
        <time>2025-03-16T07:51:19.000Z</time>
      </trkpt>
      <trkpt lat="48.67746" lon="1.96404">
        <ele>115</ele>
        <time>2025-03-16T07:52:38.000Z</time>
      </trkpt>
      <trkpt lat="48.67772" lon="1.96416">
        <ele>119</ele>
        <time>2025-03-16T07:53:51.000Z</time>
      </trkpt>
      <trkpt lat="48.67784" lon="1.96452">
        <ele>112</ele>
        <time>2025-03-16T07:54:22.000Z</time>
      </trkpt>
      <trkpt lat="48.67802" lon="1.96467">
        <ele>113</ele>
        <time>2025-03-16T07:54:56.000Z</time>
      </trkpt>
      <trkpt lat="48.67831" lon="1.96469">
        <ele>112</ele>
        <time>2025-03-16T07:55:29.000Z</time>
      </trkpt>
      <trkpt lat="48.6786" lon="1.96472">
        <ele>111</ele>
        <time>2025-03-16T07:56:02.000Z</time>
      </trkpt>
      <trkpt lat="48.67896" lon="1.96498">
        <ele>107</ele>
        <time>2025-03-16T07:56:48.000Z</time>
      </trkpt>
      <trkpt lat="48.67922" lon="1.96495">
        <ele>106</ele>
        <time>2025-03-16T07:57:18.000Z</time>
      </trkpt>
      <trkpt lat="48.67939" lon="1.96562">
        <ele>110</ele>
        <time>2025-03-16T07:58:54.000Z</time>
      </trkpt>
      <trkpt lat="48.67955" lon="1.96607">
        <ele>110</ele>
        <time>2025-03-16T07:59:32.000Z</time>
      </trkpt>
      <trkpt lat="48.6789" lon="1.96598">
        <ele>114</ele>
        <time>2025-03-16T08:01:28.000Z</time>
      </trkpt>
      <trkpt lat="48.67891" lon="1.96649">
        <ele>114</ele>
        <time>2025-03-16T08:02:06.000Z</time>
      </trkpt>
      <trkpt lat="48.67897" lon="1.96677">
        <ele>113</ele>
        <time>2025-03-16T08:02:28.000Z</time>
      </trkpt>
      <trkpt lat="48.67902" lon="1.96769">
        <ele>113</ele>
        <time>2025-03-16T08:03:38.000Z</time>
      </trkpt>
      <trkpt lat="48.67939" lon="1.96802">
        <ele>113</ele>
        <time>2025-03-16T08:04:27.000Z</time>
      </trkpt>
      <trkpt lat="48.67966" lon="1.96846">
        <ele>114</ele>
        <time>2025-03-16T08:05:22.000Z</time>
      </trkpt>
      <trkpt lat="48.67976" lon="1.96973">
        <ele>119</ele>
        <time>2025-03-16T08:07:50.000Z</time>
      </trkpt>
      <trkpt lat="48.68037" lon="1.97106">
        <ele>123</ele>
        <time>2025-03-16T08:10:34.000Z</time>
      </trkpt>
      <trkpt lat="48.68015" lon="1.97204">
        <ele>126</ele>
        <time>2025-03-16T08:12:23.000Z</time>
      </trkpt>
      <trkpt lat="48.68" lon="1.97308">
        <ele>128</ele>
        <time>2025-03-16T08:14:04.000Z</time>
      </trkpt>
      <trkpt lat="48.68008" lon="1.97387">
        <ele>126</ele>
        <time>2025-03-16T08:15:05.000Z</time>
      </trkpt>
      <trkpt lat="48.67994" lon="1.9744">
        <ele>126</ele>
        <time>2025-03-16T08:15:48.000Z</time>
      </trkpt>
      <trkpt lat="48.67999" lon="1.97561">
        <ele>129</ele>
        <time>2025-03-16T08:17:51.000Z</time>
      </trkpt>
      <trkpt lat="48.67987" lon="1.97623">
        <ele>130</ele>
        <time>2025-03-16T08:18:50.000Z</time>
      </trkpt>
      <trkpt lat="48.68005" lon="1.97644">
        <ele>129</ele>
        <time>2025-03-16T08:19:16.000Z</time>
      </trkpt>
      <trkpt lat="48.68035" lon="1.97655">
        <ele>128</ele>
        <time>2025-03-16T08:19:52.000Z</time>
      </trkpt>
      <trkpt lat="48.68038" lon="1.97704">
        <ele>129</ele>
        <time>2025-03-16T08:20:40.000Z</time>
      </trkpt>
      <trkpt lat="48.68004" lon="1.97872">
        <ele>131</ele>
        <time>2025-03-16T08:23:14.000Z</time>
      </trkpt>
      <trkpt lat="48.67987" lon="1.9795">
        <ele>131</ele>
        <time>2025-03-16T08:24:16.000Z</time>
      </trkpt>
      <trkpt lat="48.67953" lon="1.98017">
        <ele>132</ele>
        <time>2025-03-16T08:25:30.000Z</time>
      </trkpt>
      <trkpt lat="48.67931" lon="1.98116">
        <ele>130</ele>
        <time>2025-03-16T08:26:49.000Z</time>
      </trkpt>
      <trkpt lat="48.67927" lon="1.9816">
        <ele>128</ele>
        <time>2025-03-16T08:27:23.000Z</time>
      </trkpt>
      <trkpt lat="48.67919" lon="1.98202">
        <ele>128</ele>
        <time>2025-03-16T08:27:56.000Z</time>
      </trkpt>
      <trkpt lat="48.67948" lon="1.98264">
        <ele>126</ele>
        <time>2025-03-16T08:28:53.000Z</time>
      </trkpt>
      <trkpt lat="48.68083" lon="1.98142">
        <ele>118</ele>
        <time>2025-03-16T08:31:53.000Z</time>
      </trkpt>
      <trkpt lat="48.68132" lon="1.98142">
        <ele>117</ele>
        <time>2025-03-16T08:32:49.000Z</time>
      </trkpt>
      <trkpt lat="48.68167" lon="1.98188">
        <ele>117</ele>
        <time>2025-03-16T08:33:43.000Z</time>
      </trkpt>
      <trkpt lat="48.68197" lon="1.98204">
        <ele>118</ele>
        <time>2025-03-16T08:34:29.000Z</time>
      </trkpt>
      <trkpt lat="48.68251" lon="1.98177">
        <ele>121</ele>
        <time>2025-03-16T08:36:05.000Z</time>
      </trkpt>
      <trkpt lat="48.68278" lon="1.98184">
        <ele>122</ele>
        <time>2025-03-16T08:36:47.000Z</time>
      </trkpt>
      <trkpt lat="48.68297" lon="1.98218">
        <ele>125</ele>
        <time>2025-03-16T08:37:51.000Z</time>
      </trkpt>
      <trkpt lat="48.68314" lon="1.9821">
        <ele>122</ele>
        <time>2025-03-16T08:38:11.000Z</time>
      </trkpt>
      <trkpt lat="48.68315" lon="1.98236">
        <ele>124</ele>
        <time>2025-03-16T08:38:51.000Z</time>
      </trkpt>
      <trkpt lat="48.68308" lon="1.98293">
        <ele>128</ele>
        <time>2025-03-16T08:40:16.000Z</time>
      </trkpt>
      <trkpt lat="48.68308" lon="1.98334">
        <ele>129</ele>
        <time>2025-03-16T08:40:58.000Z</time>
      </trkpt>
      <trkpt lat="48.68328" lon="1.98341">
        <ele>132</ele>
        <time>2025-03-16T08:41:52.000Z</time>
      </trkpt>
      <trkpt lat="48.68403" lon="1.9829">
        <ele>137</ele>
        <time>2025-03-16T08:44:18.000Z</time>
      </trkpt>
      <trkpt lat="48.68447" lon="1.98297">
        <ele>138</ele>
        <time>2025-03-16T08:45:19.000Z</time>
      </trkpt>
      <trkpt lat="48.6848" lon="1.98334">
        <ele>139</ele>
        <time>2025-03-16T08:46:16.000Z</time>
      </trkpt>
      <trkpt lat="48.68476" lon="1.98385">
        <ele>143</ele>
        <time>2025-03-16T08:47:36.000Z</time>
      </trkpt>
      <trkpt lat="48.68495" lon="1.98408">
        <ele>144</ele>
        <time>2025-03-16T08:48:15.000Z</time>
      </trkpt>
      <trkpt lat="48.68581" lon="1.98471">
        <ele>145</ele>
        <time>2025-03-16T08:50:14.000Z</time>
      </trkpt>
      <trkpt lat="48.68643" lon="1.9859">
        <ele>144</ele>
        <time>2025-03-16T08:52:09.000Z</time>
      </trkpt>
      <trkpt lat="48.68638" lon="1.98701">
        <ele>143</ele>
        <time>2025-03-16T08:53:33.000Z</time>
      </trkpt>
      <trkpt lat="48.68652" lon="1.98723">
        <ele>145</ele>
        <time>2025-03-16T08:54:16.000Z</time>
      </trkpt>
      <trkpt lat="48.68631" lon="1.98744">
        <ele>149</ele>
        <time>2025-03-16T08:55:26.000Z</time>
      </trkpt>
      <trkpt lat="48.68593" lon="1.98778">
        <ele>161</ele>
        <time>2025-03-16T08:58:19.000Z</time>
      </trkpt>
      <trkpt lat="48.68543" lon="1.98848">
        <ele>168</ele>
        <time>2025-03-16T09:00:49.000Z</time>
      </trkpt>
      <trkpt lat="48.68544" lon="1.98935">
        <ele>171</ele>
        <time>2025-03-16T09:02:26.000Z</time>
      </trkpt>
      <trkpt lat="48.68514" lon="1.99056">
        <ele>173</ele>
        <time>2025-03-16T09:04:25.000Z</time>
      </trkpt>
      <trkpt lat="48.68493" lon="1.99117">
        <ele>173</ele>
        <time>2025-03-16T09:05:17.000Z</time>
      </trkpt>
      <trkpt lat="48.68562" lon="1.99182">
        <ele>175</ele>
        <time>2025-03-16T09:07:11.000Z</time>
      </trkpt>
      <trkpt lat="48.68392" lon="1.99687">
        <ele>177</ele>
        <time>2025-03-16T09:14:40.000Z</time>
      </trkpt>
      <trkpt lat="48.6832" lon="1.99893">
        <ele>177</ele>
        <time>2025-03-16T09:17:36.000Z</time>
      </trkpt>
      <trkpt lat="48.68249" lon="2.00037">
        <ele>176</ele>
        <time>2025-03-16T09:19:52.000Z</time>
      </trkpt>
      <trkpt lat="48.68318" lon="2.00143">
        <ele>176</ele>
        <time>2025-03-16T09:21:44.000Z</time>
      </trkpt>
      <trkpt lat="48.68297" lon="2.00333">
        <ele>175</ele>
        <time>2025-03-16T09:24:10.000Z</time>
      </trkpt>
      <trkpt lat="48.68185" lon="2.00763">
        <ele>173</ele>
        <time>2025-03-16T09:30:00.000Z</time>
      </trkpt>
      <trkpt lat="48.68182" lon="2.00952">
        <ele>172</ele>
        <time>2025-03-16T09:32:23.000Z</time>
      </trkpt>
      <trkpt lat="48.68171" lon="2.01044">
        <ele>170</ele>
        <time>2025-03-16T09:33:34.000Z</time>
      </trkpt>
      <trkpt lat="48.68119" lon="2.00938">
        <ele>172</ele>
        <time>2025-03-16T09:35:35.000Z</time>
      </trkpt>
      <trkpt lat="48.68059" lon="2.00877">
        <ele>171</ele>
        <time>2025-03-16T09:36:57.000Z</time>
      </trkpt>
      <trkpt lat="48.68026" lon="2.00869">
        <ele>170</ele>
        <time>2025-03-16T09:37:36.000Z</time>
      </trkpt>
      <trkpt lat="48.67991" lon="2.00909">
        <ele>164</ele>
        <time>2025-03-16T09:38:26.000Z</time>
      </trkpt>
      <trkpt lat="48.67993" lon="2.00952">
        <ele>162</ele>
        <time>2025-03-16T09:38:59.000Z</time>
      </trkpt>
      <trkpt lat="48.67985" lon="2.01037">
        <ele>156</ele>
        <time>2025-03-16T09:40:04.000Z</time>
      </trkpt>
      <trkpt lat="48.67986" lon="2.01164">
        <ele>149</ele>
        <time>2025-03-16T09:41:40.000Z</time>
      </trkpt>
      <trkpt lat="48.67976" lon="2.01233">
        <ele>142</ele>
        <time>2025-03-16T09:42:33.000Z</time>
      </trkpt>
      <trkpt lat="48.67962" lon="2.01267">
        <ele>140</ele>
        <time>2025-03-16T09:43:04.000Z</time>
      </trkpt>
      <trkpt lat="48.67912" lon="2.01312">
        <ele>155</ele>
        <time>2025-03-16T09:46:44.000Z</time>
      </trkpt>
      <trkpt lat="48.67864" lon="2.01361">
        <ele>167</ele>
        <time>2025-03-16T09:49:55.000Z</time>
      </trkpt>
      <trkpt lat="48.67867" lon="2.01511">
        <ele>171</ele>
        <time>2025-03-16T09:52:29.000Z</time>
      </trkpt>
      <trkpt lat="48.67897" lon="2.01789">
        <ele>170</ele>
        <time>2025-03-16T09:56:02.000Z</time>
      </trkpt>
      <trkpt lat="48.67863" lon="2.02041">
        <ele>170</ele>
        <time>2025-03-16T09:59:16.000Z</time>
      </trkpt>
      <trkpt lat="48.67866" lon="2.02223">
        <ele>171</ele>
        <time>2025-03-16T10:01:44.000Z</time>
      </trkpt>
      <trkpt lat="48.67854" lon="2.02249">
        <ele>171</ele>
        <time>2025-03-16T10:02:08.000Z</time>
      </trkpt>
      <trkpt lat="48.67852" lon="2.02303">
        <ele>170</ele>
        <time>2025-03-16T10:02:49.000Z</time>
      </trkpt>
      <trkpt lat="48.67864" lon="2.02324">
        <ele>170</ele>
        <time>2025-03-16T10:03:10.000Z</time>
      </trkpt>
      <trkpt lat="48.67863" lon="2.02342">
        <ele>169</ele>
        <time>2025-03-16T10:03:24.000Z</time>
      </trkpt>
      <trkpt lat="48.67858" lon="2.0256">
        <ele>153</ele>
        <time>2025-03-16T10:06:09.000Z</time>
      </trkpt>
      <trkpt lat="48.67896" lon="2.0263">
        <ele>152</ele>
        <time>2025-03-16T10:07:17.000Z</time>
      </trkpt>
      <trkpt lat="48.67925" lon="2.0266">
        <ele>155</ele>
        <time>2025-03-16T10:08:28.000Z</time>
      </trkpt>
      <trkpt lat="48.67984" lon="2.02689">
        <ele>152</ele>
        <time>2025-03-16T10:09:39.000Z</time>
      </trkpt>
      <trkpt lat="48.6799" lon="2.02722">
        <ele>158</ele>
        <time>2025-03-16T10:11:06.000Z</time>
      </trkpt>
      <trkpt lat="48.67973" lon="2.02799">
        <ele>164</ele>
        <time>2025-03-16T10:13:09.000Z</time>
      </trkpt>
      <trkpt lat="48.67978" lon="2.02824">
        <ele>163</ele>
        <time>2025-03-16T10:13:29.000Z</time>
      </trkpt>
      <trkpt lat="48.67964" lon="2.02908">
        <ele>162</ele>
        <time>2025-03-16T10:14:34.000Z</time>
      </trkpt>
      <trkpt lat="48.68" lon="2.02943">
        <ele>162</ele>
        <time>2025-03-16T10:15:22.000Z</time>
      </trkpt>
      <trkpt lat="48.68024" lon="2.02954">
        <ele>163</ele>
        <time>2025-03-16T10:16:02.000Z</time>
      </trkpt>
      <trkpt lat="48.68049" lon="2.02994">
        <ele>166</ele>
        <time>2025-03-16T10:17:14.000Z</time>
      </trkpt>
      <trkpt lat="48.68141" lon="2.0299">
        <ele>164</ele>
        <time>2025-03-16T10:19:00.000Z</time>
      </trkpt>
      <trkpt lat="48.68201" lon="2.02993">
        <ele>167</ele>
        <time>2025-03-16T10:20:39.000Z</time>
      </trkpt>
      <trkpt lat="48.68227" lon="2.03026">
        <ele>169</ele>
        <time>2025-03-16T10:21:38.000Z</time>
      </trkpt>
      <trkpt lat="48.68237" lon="2.03057">
        <ele>170</ele>
        <time>2025-03-16T10:22:15.000Z</time>
      </trkpt>
      <trkpt lat="48.68255" lon="2.0307">
        <ele>170</ele>
        <time>2025-03-16T10:22:38.000Z</time>
      </trkpt>
      <trkpt lat="48.68554" lon="2.03192">
        <ele>170</ele>
        <time>2025-03-16T10:28:32.000Z</time>
      </trkpt>
      <trkpt lat="48.68568" lon="2.03162">
        <ele>170</ele>
        <time>2025-03-16T10:29:00.000Z</time>
      </trkpt>
      <trkpt lat="48.6859" lon="2.03141">
        <ele>170</ele>
        <time>2025-03-16T10:29:30.000Z</time>
      </trkpt>
      <trkpt lat="48.68939" lon="2.03278">
        <ele>162</ele>
        <time>2025-03-16T10:36:23.000Z</time>
      </trkpt>
      <trkpt lat="48.69129" lon="2.03364">
        <ele>158</ele>
        <time>2025-03-16T10:40:09.000Z</time>
      </trkpt>
      <trkpt lat="48.69119" lon="2.03426">
        <ele>158</ele>
        <time>2025-03-16T10:40:57.000Z</time>
      </trkpt>
      <trkpt lat="48.69162" lon="2.03488">
        <ele>156</ele>
        <time>2025-03-16T10:42:05.000Z</time>
      </trkpt>
      <trkpt lat="48.69415" lon="2.03665">
        <ele>156</ele>
        <time>2025-03-16T10:47:24.000Z</time>
      </trkpt>
      <trkpt lat="48.69458" lon="2.03691">
        <ele>159</ele>
        <time>2025-03-16T10:48:48.000Z</time>
      </trkpt>
      <trkpt lat="48.69423" lon="2.03792">
        <ele>159</ele>
        <time>2025-03-16T10:50:14.000Z</time>
      </trkpt>
      <trkpt lat="48.69436" lon="2.03834">
        <ele>160</ele>
        <time>2025-03-16T10:50:59.000Z</time>
      </trkpt>
      <trkpt lat="48.69422" lon="2.03904">
        <ele>159</ele>
        <time>2025-03-16T10:51:55.000Z</time>
      </trkpt>
      <trkpt lat="48.69427" lon="2.03972">
        <ele>160</ele>
        <time>2025-03-16T10:52:57.000Z</time>
      </trkpt>
      <trkpt lat="48.69434" lon="2.04099">
        <ele>162</ele>
        <time>2025-03-16T10:54:54.000Z</time>
      </trkpt>
      <trkpt lat="48.69438" lon="2.04173">
        <ele>163</ele>
        <time>2025-03-16T10:56:01.000Z</time>
      </trkpt>
      <trkpt lat="48.69435" lon="2.04396">
        <ele>164</ele>
        <time>2025-03-16T10:59:00.000Z</time>
      </trkpt>
      <trkpt lat="48.69436" lon="2.04433">
        <ele>165</ele>
        <time>2025-03-16T10:59:39.000Z</time>
      </trkpt>
      <trkpt lat="48.69429" lon="2.04526">
        <ele>165</ele>
        <time>2025-03-16T11:00:49.000Z</time>
      </trkpt>
      <trkpt lat="48.69434" lon="2.04579">
        <ele>165</ele>
        <time>2025-03-16T11:01:30.000Z</time>
      </trkpt>
      <trkpt lat="48.69417" lon="2.04618">
        <ele>165</ele>
        <time>2025-03-16T11:02:05.000Z</time>
      </trkpt>
      <trkpt lat="48.69402" lon="2.04707">
        <ele>165</ele>
        <time>2025-03-16T11:03:15.000Z</time>
      </trkpt>
      <trkpt lat="48.69401" lon="2.04754">
        <ele>165</ele>
        <time>2025-03-16T11:03:50.000Z</time>
      </trkpt>
      <trkpt lat="48.69401" lon="2.0481">
        <ele>165</ele>
        <time>2025-03-16T11:04:32.000Z</time>
      </trkpt>
      <trkpt lat="48.69395" lon="2.04884">
        <ele>165</ele>
        <time>2025-03-16T11:05:29.000Z</time>
      </trkpt>
      <trkpt lat="48.69406" lon="2.04953">
        <ele>165</ele>
        <time>2025-03-16T11:06:23.000Z</time>
      </trkpt>
      <trkpt lat="48.69429" lon="2.05054">
        <ele>165</ele>
        <time>2025-03-16T11:07:43.000Z</time>
      </trkpt>
      <trkpt lat="48.69444" lon="2.051">
        <ele>165</ele>
        <time>2025-03-16T11:08:22.000Z</time>
      </trkpt>
      <trkpt lat="48.69455" lon="2.05137">
        <ele>165</ele>
        <time>2025-03-16T11:08:53.000Z</time>
      </trkpt>
      <trkpt lat="48.69489" lon="2.05237">
        <ele>165</ele>
        <time>2025-03-16T11:10:18.000Z</time>
      </trkpt>
      <trkpt lat="48.69525" lon="2.05318">
        <ele>164</ele>
        <time>2025-03-16T11:11:32.000Z</time>
      </trkpt>
      <trkpt lat="48.69564" lon="2.05369">
        <ele>163</ele>
        <time>2025-03-16T11:12:30.000Z</time>
      </trkpt>
      <trkpt lat="48.69645" lon="2.05369">
        <ele>160</ele>
        <time>2025-03-16T11:14:03.000Z</time>
      </trkpt>
      <trkpt lat="48.69709" lon="2.0535">
        <ele>157</ele>
        <time>2025-03-16T11:15:17.000Z</time>
      </trkpt>
      <trkpt lat="48.69761" lon="2.05391">
        <ele>144</ele>
        <time>2025-03-16T11:16:24.000Z</time>
      </trkpt>
      <trkpt lat="48.6978" lon="2.05417">
        <ele>139</ele>
        <time>2025-03-16T11:16:53.000Z</time>
      </trkpt>
      <trkpt lat="48.69808" lon="2.0546">
        <ele>132</ele>
        <time>2025-03-16T11:17:39.000Z</time>
      </trkpt>
      <trkpt lat="48.69814" lon="2.05487">
        <ele>131</ele>
        <time>2025-03-16T11:18:01.000Z</time>
      </trkpt>
      <trkpt lat="48.69866" lon="2.05576">
        <ele>120</ele>
        <time>2025-03-16T11:19:31.000Z</time>
      </trkpt>
      <trkpt lat="48.69957" lon="2.05581">
        <ele>110</ele>
        <time>2025-03-16T11:21:15.000Z</time>
      </trkpt>
      <trkpt lat="48.70068" lon="2.05617">
        <ele>96</ele>
        <time>2025-03-16T11:23:25.000Z</time>
      </trkpt>
      <trkpt lat="48.70098" lon="2.0564">
        <ele>93</ele>
        <time>2025-03-16T11:24:03.000Z</time>
      </trkpt>
      <trkpt lat="48.70218" lon="2.05567">
        <ele>81</ele>
        <time>2025-03-16T11:26:32.000Z</time>
      </trkpt>
      <trkpt lat="48.70217" lon="2.05551">
        <ele>81</ele>
        <time>2025-03-16T11:26:44.000Z</time>
      </trkpt>
      <trkpt lat="48.70235" lon="2.05547">
        <ele>80</ele>
        <time>2025-03-16T11:27:05.000Z</time>
      </trkpt>
      <trkpt lat="48.70228" lon="2.05575">
        <ele>81</ele>
        <time>2025-03-16T11:27:38.000Z</time>
      </trkpt>
      <trkpt lat="48.70236" lon="2.05623">
        <ele>82</ele>
        <time>2025-03-16T11:28:26.000Z</time>
      </trkpt>
      <trkpt lat="48.70261" lon="2.05746">
        <ele>82</ele>
        <time>2025-03-16T11:30:03.000Z</time>
      </trkpt>
      <trkpt lat="48.70264" lon="2.05778">
        <ele>82</ele>
        <time>2025-03-16T11:30:27.000Z</time>
      </trkpt>
      <trkpt lat="48.70252" lon="2.06181">
        <ele>80</ele>
        <time>2025-03-16T11:35:32.000Z</time>
      </trkpt>
      <trkpt lat="48.70228" lon="2.063">
        <ele>81</ele>
        <time>2025-03-16T11:37:16.000Z</time>
      </trkpt>
      <trkpt lat="48.70222" lon="2.06527">
        <ele>78</ele>
        <time>2025-03-16T11:40:08.000Z</time>
      </trkpt>
      <trkpt lat="48.7027" lon="2.06821">
        <ele>76</ele>
        <time>2025-03-16T11:43:56.000Z</time>
      </trkpt>
      <trkpt lat="48.70318" lon="2.06934">
        <ele>76</ele>
        <time>2025-03-16T11:45:38.000Z</time>
      </trkpt>
      <trkpt lat="48.70317" lon="2.06952">
        <ele>77</ele>
        <time>2025-03-16T11:46:02.000Z</time>
      </trkpt>
      <trkpt lat="48.70305" lon="2.06955">
        <ele>78</ele>
        <time>2025-03-16T11:46:26.000Z</time>
      </trkpt>
      <trkpt lat="48.70316" lon="2.07088">
        <ele>79</ele>
        <time>2025-03-16T11:48:18.000Z</time>
      </trkpt>
    </trkseg>
  </trk>
</gpx>